Time;durP1;ratioP1;P1;durP2;ratioP2;P2;SDS_P1;SDS_P2;PMS_P1;PMS_P2;Temp;Humidity;BMP_temperature;BMP_pressure;BME280_temperature;BME280_humidity;BME280_pressure;Samples;Min_cycle;Max_cycle;Signal;HPM_P1;HPM_P2
2022/11/14 00:00:12;;;;;;;;;;;;;;;;;;942607;27;20277;-79
2022/11/14 00:00:43;;;;;;;;;;;;;;;;;;943168;27;20136;-78
2022/11/14 00:01:14;;;;;;;;;;;;;;;;;;942576;27;19954;-78
2022/11/14 00:01:47;;;;;;;;;;;;;;;;;;942814;27;19908;-78
2022/11/14 00:02:18;;;;;;;;;;;;;;;;;;942606;27;19903;-78
2022/11/14 00:02:48;;;;;;;;;;;;;;;;;;942541;27;19903;-78
2022/11/14 00:03:22;;;;;;;;;;;;;;;;;;942811;27;19934;-79
2022/11/14 00:03:52;;;;;;;;;;;;;;;;;;942876;27;19915;-78
2022/11/14 00:04:23;;;;;;;;;;;;;;;;;;942621;27;20159;-77
2022/11/14 00:04:54;;;;;;;;;;;;;;;;;;942823;27;19987;-77
2022/11/14 00:05:27;;;;;;;;;;;;;;;;;;942737;27;19926;-78
2022/11/14 00:06:03;;;;;;;;;;;;;;;;;;942733;27;20254;-78
2022/11/14 00:06:34;;;;;;;;;;;;;;;;;;942392;27;19903;-79
2022/11/14 00:07:07;;;;;;;;;;;;;;;;;;942015;27;20209;-76
2022/11/14 00:07:38;;;;;;;;;;;;;;;;;;942055;27;19908;-77
2022/11/14 00:08:13;;;;;;;;;;;;;;;;;;941954;27;20125;-77
2022/11/14 00:08:47;;;;;;;;;;;;;;;;;;941889;27;19911;-77
2022/11/14 00:09:17;;;;;;;;;;;;;;;;;;941915;27;19907;-76
2022/11/14 00:09:48;;;;;;;;;;;;;;;;;;942072;27;19946;-76
2022/11/14 00:10:21;;;;;;;;;;;;;;;;;;941749;27;20201;-77
2022/11/14 00:10:52;;;;;;;;;;;;;;;;;;941897;27;19914;-77
2022/11/14 00:11:23;;;;;;;;;;;;;;;;;;941846;27;19915;-78
2022/11/14 00:11:57;;;;;;;;;;;;;;;;;;941831;27;19922;-77
2022/11/14 00:12:27;;;;;;;;;;;;;;;;;;941942;27;19918;-77
2022/11/14 00:12:58;;;;;;;;;;;;;;;;;;941931;27;19908;-77
2022/11/14 00:13:31;;;;;;;;;;;;;;;;;;941661;27;19916;-77
2022/11/14 00:14:02;;;;;;;;;;;;;;;;;;941776;27;19918;-77
2022/11/14 00:14:32;;;;;;;;;;;;;;;;;;941980;27;19908;-77
2022/11/14 00:15:06;;;;;;;;;;;;;;;;;;941956;27;20208;-76
2022/11/14 00:15:37;;;;;;;;;;;;;;;;;;941991;27;19911;-77
2022/11/14 00:16:07;;;;;;;;;;;;;;;;;;941692;27;19904;-76
2022/11/14 00:16:41;;;;;;;;;;;;;;;;;;941834;27;19910;-77
2022/11/14 00:17:11;;;;;;;;;;;;;;;;;;941828;27;19908;-77
2022/11/14 00:17:42;;;;;;;;;;;;;;;;;;941891;27;20239;-78
2022/11/14 00:18:15;;;;;;;;;;;;;;;;;;941601;27;20293;-77
2022/11/14 00:18:46;;;;;;;;;;;;;;;;;;941521;27;20141;-78
2022/11/14 00:19:16;;;;;;;;;;;;;;;;;;941723;27;19903;-77
2022/11/14 00:19:50;;;;;;;;;;;;;;;;;;941331;27;19903;-77
2022/11/14 00:20:20;;;;;;;;;;;;;;;;;;941129;27;19917;-78
2022/11/14 00:20:52;;;;;;;;;;;;;;;;;;941407;27;19907;-76
2022/11/14 00:21:28;;;;;;;;;;;;;;;;;;941347;27;20155;-77
2022/11/14 00:21:59;;;;;;;;;;;;;;;;;;941382;27;19907;-77
2022/11/14 00:22:29;;;;;;;;;;;;;;;;;;941467;27;19907;-78
2022/11/14 00:23:03;;;;;;;;;;;;;;;;;;941386;27;19915;-76
2022/11/14 00:23:33;;;;;;;;;;;;;;;;;;941092;27;19923;-76
2022/11/14 00:24:04;;;;;;;;;;;;;;;;;;941092;27;19915;-78
2022/11/14 00:24:37;;;;;;;;;;;;;;;;;;941356;27;19965;-76
2022/11/14 00:25:09;;;;;;;;;;;;;;;;;;941138;27;19918;-76
2022/11/14 00:25:40;;;;;;;;;;;;;;;;;;941235;27;19908;-77
2022/11/14 00:26:13;;;;;;;;;;;;;;;;;;941125;27;19908;-76
2022/11/14 00:26:44;;;;;;;;;;;;;;;;;;941241;27;19919;-77
2022/11/14 00:27:15;;;;;;;;;;;;;;;;;;941201;27;20243;-75
2022/11/14 00:27:48;;;;;;;;;;;;;;;;;;941037;27;20017;-76
2022/11/14 00:28:19;;;;;;;;;;;;;;;;;;941172;27;20428;-78
2022/11/14 00:28:49;;;;;;;;;;;;;;;;;;941386;27;19907;-76
2022/11/14 00:29:22;;;;;;;;;;;;;;;;;;941205;27;19915;-77
2022/11/14 00:29:53;;;;;;;;;;;;;;;;;;941449;27;20254;-76
2022/11/14 00:30:24;;;;;;;;;;;;;;;;;;941125;27;19907;-76
2022/11/14 00:30:57;;;;;;;;;;;;;;;;;;941197;27;20321;-77
2022/11/14 00:31:28;;;;;;;;;;;;;;;;;;941169;27;19904;-75
2022/11/14 00:31:58;;;;;;;;;;;;;;;;;;941169;27;19907;-77
2022/11/14 00:32:32;;;;;;;;;;;;;;;;;;940928;27;19915;-75
2022/11/14 00:33:03;;;;;;;;;;;;;;;;;;941207;27;19915;-76
2022/11/14 00:33:34;;;;;;;;;;;;;;;;;;941273;27;19907;-76
2022/11/14 00:34:07;;;;;;;;;;;;;;;;;;941437;27;19911;-76
2022/11/14 00:34:37;;;;;;;;;;;;;;;;;;941282;27;19916;-77
2022/11/14 00:35:08;;;;;;;;;;;;;;;;;;941429;27;20213;-76
2022/11/14 00:35:42;;;;;;;;;;;;;;;;;;941427;27;19911;-76
2022/11/14 00:36:12;;;;;;;;;;;;;;;;;;941434;27;20250;-77
2022/11/14 00:36:45;;;;;;;;;;;;;;;;;;941524;27;19919;-77
2022/11/14 00:37:19;;;;;;;;;;;;;;;;;;941746;27;19903;-76
2022/11/14 00:37:49;;;;;;;;;;;;;;;;;;941673;27;19907;-76
2022/11/14 00:38:20;;;;;;;;;;;;;;;;;;941822;27;19907;-76
2022/11/14 00:38:54;;;;;;;;;;;;;;;;;;942826;27;19907;-77
2022/11/14 00:39:25;;;;;;;;;;;;;;;;;;942910;27;19924;-78
2022/11/14 00:39:55;;;;;;;;;;;;;;;;;;943284;27;19907;-77
2022/11/14 00:40:28;;;;;;;;;;;;;;;;;;942462;27;19931;-77
2022/11/14 00:40:59;;;;;;;;;;;;;;;;;;942582;27;19907;-78
2022/11/14 00:41:30;;;;;;;;;;;;;;;;;;942868;27;19903;-76
2022/11/14 00:42:03;;;;;;;;;;;;;;;;;;943386;27;19910;-78
2022/11/14 00:42:34;;;;;;;;;;;;;;;;;;943053;27;19907;-78
2022/11/14 00:43:04;;;;;;;;;;;;;;;;;;943028;27;19903;-77
2022/11/14 00:43:38;;;;;;;;;;;;;;;;;;942052;27;19903;-77
2022/11/14 00:44:10;;;;;;;;;;;;;;;;;;941941;27;19907;-78
2022/11/14 00:44:40;;;;;;;;;;;;;;;;;;941934;27;19922;-76
2022/11/14 00:45:14;;;;;;;;;;;;;;;;;;942058;27;20257;-76
2022/11/14 00:45:45;;;;;;;;;;;;;;;;;;941970;27;19912;-77
2022/11/14 00:46:15;;;;;;;;;;;;;;;;;;941978;27;19984;-77
2022/11/14 00:46:49;;;;;;;;;;;;;;;;;;941976;27;19907;-76
2022/11/14 00:47:19;;;;;;;;;;;;;;;;;;942190;27;20250;-77
2022/11/14 00:47:50;;;;;;;;;;;;;;;;;;942088;27;19922;-76
2022/11/14 00:48:23;;;;;;;;;;;;;;;;;;942129;27;19926;-78
2022/11/14 00:48:54;;;;;;;;;;;;;;;;;;941929;27;19914;-76
2022/11/14 00:49:25;;;;;;;;;;;;;;;;;;942001;27;19946;-77
2022/11/14 00:49:58;;;;;;;;;;;;;;;;;;942188;27;19903;-78
2022/11/14 00:50:28;;;;;;;;;;;;;;;;;;942017;27;19904;-80
2022/11/14 00:50:59;;;;;;;;;;;;;;;;;;942285;27;20606;-77
2022/11/14 00:51:32;;;;;;;;;;;;;;;;;;942409;27;20182;-78
2022/11/14 00:52:06;;;;;;;;;;;;;;;;;;944128;27;19917;-78
2022/11/14 00:52:36;;;;;;;;;;;;;;;;;;944747;27;19903;-79
2022/11/14 00:53:10;;;;;;;;;;;;;;;;;;944700;27;19903;-78
2022/11/14 00:53:40;;;;;;;;;;;;;;;;;;944686;27;19910;-77
2022/11/14 00:54:11;;;;;;;;;;;;;;;;;;944833;27;19918;-78
2022/11/14 00:54:44;;;;;;;;;;;;;;;;;;944200;27;19956;-78
2022/11/14 00:55:15;;;;;;;;;;;;;;;;;;944521;27;19906;-78
2022/11/14 00:55:46;;;;;;;;;;;;;;;;;;944892;27;19903;-78
2022/11/14 00:56:19;;;;;;;;;;;;;;;;;;944717;27;19943;-79
2022/11/14 00:56:50;;;;;;;;;;;;;;;;;;944655;27;19904;-78
2022/11/14 00:57:20;;;;;;;;;;;;;;;;;;944785;27;20221;-78
2022/11/14 00:57:51;;;;;;;;;;;;;;;;;;944497;27;20132;-79
2022/11/14 00:58:24;;;;;;;;;;;;;;;;;;944862;27;20291;-79
2022/11/14 00:58:55;;;;;;;;;;;;;;;;;;944724;27;19905;-78
2022/11/14 00:59:25;;;;;;;;;;;;;;;;;;944530;27;19922;-77
2022/11/14 00:59:59;;;;;;;;;;;;;;;;;;944684;27;19932;-78
2022/11/14 01:00:29;;;;;;;;;;;;;;;;;;944698;27;19903;-78
2022/11/14 01:01:00;;;;;;;;;;;;;;;;;;943615;27;19904;-77
2022/11/14 01:01:33;;;;;;;;;;;;;;;;;;941512;27;19907;-76
2022/11/14 01:02:04;;;;;;;;;;;;;;;;;;941309;27;19914;-76
2022/11/14 01:02:34;;;;;;;;;;;;;;;;;;941685;27;19911;-77
2022/11/14 01:03:08;;;;;;;;;;;;;;;;;;941572;27;19907;-77
2022/11/14 01:03:38;;;;;;;;;;;;;;;;;;941747;27;19917;-77
2022/11/14 01:04:09;;;;;;;;;;;;;;;;;;941556;27;19918;-77
2022/11/14 01:04:42;;;;;;;;;;;;;;;;;;941657;27;19907;-77
2022/11/14 01:05:13;;;;;;;;;;;;;;;;;;941429;27;19904;-77
2022/11/14 01:05:45;;;;;;;;;;;;;;;;;;941483;27;19908;-78
2022/11/14 01:06:19;;;;;;;;;;;;;;;;;;941607;27;19919;-77
2022/11/14 01:06:50;;;;;;;;;;;;;;;;;;941516;27;19913;-77
2022/11/14 01:07:23;;;;;;;;;;;;;;;;;;941670;27;19918;-76
2022/11/14 01:07:56;;;;;;;;;;;;;;;;;;941674;27;19907;-77
2022/11/14 01:08:27;;;;;;;;;;;;;;;;;;941610;27;19907;-76
2022/11/14 01:08:58;;;;;;;;;;;;;;;;;;941646;27;19919;-75
2022/11/14 01:09:31;;;;;;;;;;;;;;;;;;941720;27;19923;-77
2022/11/14 01:10:02;;;;;;;;;;;;;;;;;;941551;27;19914;-76
2022/11/14 01:10:32;;;;;;;;;;;;;;;;;;941595;27;19907;-78
2022/11/14 01:11:10;;;;;;;;;;;;;;;;;;941484;27;19907;-76
2022/11/14 01:11:41;;;;;;;;;;;;;;;;;;941685;27;19908;-77
2022/11/14 01:12:11;;;;;;;;;;;;;;;;;;941361;27;19907;-77
2022/11/14 01:12:45;;;;;;;;;;;;;;;;;;941466;27;19904;-76
2022/11/14 01:13:16;;;;;;;;;;;;;;;;;;941318;27;20122;-77
2022/11/14 01:13:47;;;;;;;;;;;;;;;;;;941424;27;19904;-77
2022/11/14 01:14:21;;;;;;;;;;;;;;;;;;941546;27;19915;-77
2022/11/14 01:14:51;;;;;;;;;;;;;;;;;;941880;27;19949;-76
2022/11/14 01:15:22;;;;;;;;;;;;;;;;;;941591;27;19941;-76
2022/11/14 01:15:55;;;;;;;;;;;;;;;;;;941514;27;20269;-77
2022/11/14 01:16:26;;;;;;;;;;;;;;;;;;941523;27;20334;-77
2022/11/14 01:16:57;;;;;;;;;;;;;;;;;;941742;27;19918;-77
2022/11/14 01:17:27;;;;;;;;;;;;;;;;;;941312;27;20213;-77
2022/11/14 01:18:00;;;;;;;;;;;;;;;;;;941398;27;19957;-77
2022/11/14 01:18:31;;;;;;;;;;;;;;;;;;941452;27;19911;-76
2022/11/14 01:19:02;;;;;;;;;;;;;;;;;;941470;27;19907;-76
2022/11/14 01:19:36;;;;;;;;;;;;;;;;;;941565;27;19915;-77
2022/11/14 01:20:07;;;;;;;;;;;;;;;;;;941327;27;19904;-75
2022/11/14 01:20:37;;;;;;;;;;;;;;;;;;941386;27;19907;-77
2022/11/14 01:21:10;;;;;;;;;;;;;;;;;;941475;27;19983;-77
2022/11/14 01:21:43;;;;;;;;;;;;;;;;;;941384;27;19963;-76
2022/11/14 01:22:14;;;;;;;;;;;;;;;;;;941463;27;19918;-77
2022/11/14 01:22:47;;;;;;;;;;;;;;;;;;941498;27;19950;-75
2022/11/14 01:23:21;;;;;;;;;;;;;;;;;;941395;27;19911;-76
2022/11/14 01:23:51;;;;;;;;;;;;;;;;;;941514;27;19907;-77
2022/11/14 01:24:22;;;;;;;;;;;;;;;;;;941163;27;20239;-76
2022/11/14 01:24:57;;;;;;;;;;;;;;;;;;941577;27;19959;-77
2022/11/14 01:25:27;;;;;;;;;;;;;;;;;;941458;27;19967;-77
2022/11/14 01:26:00;;;;;;;;;;;;;;;;;;941476;27;19915;-77
2022/11/14 01:26:34;;;;;;;;;;;;;;;;;;941439;27;19922;-75
2022/11/14 01:27:04;;;;;;;;;;;;;;;;;;941495;27;19908;-78
2022/11/14 01:27:35;;;;;;;;;;;;;;;;;;941326;27;19908;-76
2022/11/14 01:28:09;;;;;;;;;;;;;;;;;;941356;27;20159;-76
2022/11/14 01:28:40;;;;;;;;;;;;;;;;;;941508;27;19907;-77
2022/11/14 01:29:10;;;;;;;;;;;;;;;;;;941379;27;19908;-76
2022/11/14 01:29:44;;;;;;;;;;;;;;;;;;941386;27;19923;-76
2022/11/14 01:30:14;;;;;;;;;;;;;;;;;;941333;27;19921;-76
2022/11/14 01:30:45;;;;;;;;;;;;;;;;;;941364;27;19907;-77
2022/11/14 01:31:20;;;;;;;;;;;;;;;;;;941318;27;19915;-76
2022/11/14 01:31:51;;;;;;;;;;;;;;;;;;941439;27;20164;-77
2022/11/14 01:32:21;;;;;;;;;;;;;;;;;;941480;27;19908;-77
2022/11/14 01:32:54;;;;;;;;;;;;;;;;;;941485;27;19907;-76
2022/11/14 01:33:25;;;;;;;;;;;;;;;;;;941346;27;19907;-77
2022/11/14 01:33:56;;;;;;;;;;;;;;;;;;941501;27;19908;-76
2022/11/14 01:34:29;;;;;;;;;;;;;;;;;;941429;27;20224;-76
2022/11/14 01:35:00;;;;;;;;;;;;;;;;;;942289;27;20224;-77
2022/11/14 01:35:31;;;;;;;;;;;;;;;;;;941757;27;19904;-78
2022/11/14 01:36:04;;;;;;;;;;;;;;;;;;942032;27;19919;-77
2022/11/14 01:36:34;;;;;;;;;;;;;;;;;;941889;27;19907;-77
2022/11/14 01:37:05;;;;;;;;;;;;;;;;;;942045;27;19912;-76
2022/11/14 01:37:38;;;;;;;;;;;;;;;;;;941978;27;19908;-77
2022/11/14 01:38:13;;;;;;;;;;;;;;;;;;941934;27;19904;-78
2022/11/14 01:38:44;;;;;;;;;;;;;;;;;;942044;27;20012;-78
2022/11/14 01:39:17;;;;;;;;;;;;;;;;;;941899;27;20020;-77
2022/11/14 01:39:48;;;;;;;;;;;;;;;;;;941996;27;19903;-79
2022/11/14 01:40:18;;;;;;;;;;;;;;;;;;942101;27;19907;-76
2022/11/14 01:40:52;;;;;;;;;;;;;;;;;;941845;27;19922;-78
2022/11/14 01:41:22;;;;;;;;;;;;;;;;;;942042;27;20464;-78
2022/11/14 01:41:54;;;;;;;;;;;;;;;;;;942090;27;19914;-78
2022/11/14 01:42:25;;;;;;;;;;;;;;;;;;942055;27;20231;-77
2022/11/14 01:43:16;;;;;;;;;;;;;;;;;;941595;27;19933;-77
2022/11/14 01:43:47;;;;;;;;;;;;;;;;;;941447;27;19987;-77
2022/11/14 01:44:40;;;;;;;;;;;;;;;;;;942265;27;19919;-77
2022/11/14 01:45:25;;;;;;;;;;;;;;;;;;941997;27;19908;-77
2022/11/14 01:45:57;;;;;;;;;;;;;;;;;;942435;27;19915;-77
2022/11/14 01:46:32;;;;;;;;;;;;;;;;;;942856;27;19915;-78
2022/11/14 01:47:03;;;;;;;;;;;;;;;;;;942656;27;19915;-78
2022/11/14 01:47:34;;;;;;;;;;;;;;;;;;942809;27;20148;-78
2022/11/14 01:48:08;;;;;;;;;;;;;;;;;;942564;27;19907;-77
2022/11/14 01:48:43;;;;;;;;;;;;;;;;;;942574;27;19915;-78
2022/11/14 01:49:16;;;;;;;;;;;;;;;;;;942579;27;20148;-78
2022/11/14 01:49:49;;;;;;;;;;;;;;;;;;942533;27;19967;-78
2022/11/14 01:50:22;;;;;;;;;;;;;;;;;;942624;27;19903;-77
2022/11/14 01:50:54;;;;;;;;;;;;;;;;;;942411;27;19912;-78
2022/11/14 01:51:27;;;;;;;;;;;;;;;;;;942577;27;19915;-76
2022/11/14 01:52:03;;;;;;;;;;;;;;;;;;942645;27;19971;-78
2022/11/14 01:52:36;;;;;;;;;;;;;;;;;;942268;27;19904;-78
2022/11/14 01:53:07;;;;;;;;;;;;;;;;;;942478;27;19961;-77
2022/11/14 01:53:43;;;;;;;;;;;;;;;;;;942519;27;19916;-77
2022/11/14 01:54:18;;;;;;;;;;;;;;;;;;942620;27;19945;-78
2022/11/14 01:54:50;;;;;;;;;;;;;;;;;;943090;27;19903;-78
2022/11/14 01:55:23;;;;;;;;;;;;;;;;;;943620;27;19960;-79
2022/11/14 01:55:55;;;;;;;;;;;;;;;;;;943588;27;19903;-78
2022/11/14 01:56:27;;;;;;;;;;;;;;;;;;943762;27;19903;-78
2022/11/14 01:57:02;;;;;;;;;;;;;;;;;;943664;27;19919;-77
2022/11/14 01:57:34;;;;;;;;;;;;;;;;;;943764;27;19908;-77
2022/11/14 01:58:05;;;;;;;;;;;;;;;;;;943426;27;19908;-79
2022/11/14 01:58:38;;;;;;;;;;;;;;;;;;943578;27;19904;-79
2022/11/14 01:59:13;;;;;;;;;;;;;;;;;;943191;27;19925;-77
2022/11/14 01:59:50;;;;;;;;;;;;;;;;;;941346;27;19908;-76
2022/11/14 02:00:20;;;;;;;;;;;;;;;;;;941278;27;19904;-76
2022/11/14 02:00:51;;;;;;;;;;;;;;;;;;941129;27;19959;-75
2022/11/14 02:01:24;;;;;;;;;;;;;;;;;;941209;27;20150;-76
2022/11/14 02:01:57;;;;;;;;;;;;;;;;;;941207;27;19912;-76
2022/11/14 02:02:27;;;;;;;;;;;;;;;;;;941149;27;19907;-76
2022/11/14 02:03:02;;;;;;;;;;;;;;;;;;941211;27;19916;-75
2022/11/14 02:03:35;;;;;;;;;;;;;;;;;;941122;27;19907;-76
2022/11/14 02:04:06;;;;;;;;;;;;;;;;;;941129;27;19958;-75
2022/11/14 02:04:42;;;;;;;;;;;;;;;;;;941215;27;19967;-76
2022/11/14 02:05:14;;;;;;;;;;;;;;;;;;940963;27;19973;-76
2022/11/14 02:05:46;;;;;;;;;;;;;;;;;;941099;27;19903;-76
2022/11/14 02:06:21;;;;;;;;;;;;;;;;;;941103;27;19922;-75
2022/11/14 02:06:54;;;;;;;;;;;;;;;;;;941095;27;19907;-76
2022/11/14 02:07:27;;;;;;;;;;;;;;;;;;941249;27;19914;-76
2022/11/14 02:08:00;;;;;;;;;;;;;;;;;;941063;27;20413;-76
2022/11/14 02:08:31;;;;;;;;;;;;;;;;;;941095;27;19907;-75
2022/11/14 02:09:05;;;;;;;;;;;;;;;;;;941060;27;19915;-75
2022/11/14 02:09:40;;;;;;;;;;;;;;;;;;941227;27;19917;-76
2022/11/14 02:10:15;;;;;;;;;;;;;;;;;;941120;27;19907;-75
2022/11/14 02:10:46;;;;;;;;;;;;;;;;;;941100;27;19918;-76
2022/11/14 02:11:19;;;;;;;;;;;;;;;;;;941066;27;19919;-76
2022/11/14 02:11:52;;;;;;;;;;;;;;;;;;941210;27;19917;-76
2022/11/14 02:12:23;;;;;;;;;;;;;;;;;;941026;27;19907;-77
2022/11/14 02:12:56;;;;;;;;;;;;;;;;;;941118;27;20255;-76
2022/11/14 02:13:27;;;;;;;;;;;;;;;;;;942375;27;19904;-78
2022/11/14 02:13:59;;;;;;;;;;;;;;;;;;942639;27;19908;-78
2022/11/14 02:14:33;;;;;;;;;;;;;;;;;;942729;27;19907;-78
2022/11/14 02:15:04;;;;;;;;;;;;;;;;;;942744;27;19907;-78
2022/11/14 02:15:35;;;;;;;;;;;;;;;;;;942236;27;19957;-77
2022/11/14 02:16:08;;;;;;;;;;;;;;;;;;942617;27;19912;-77
2022/11/14 02:16:40;;;;;;;;;;;;;;;;;;942235;27;20239;-77
2022/11/14 02:17:11;;;;;;;;;;;;;;;;;;942176;27;19915;-80
2022/11/14 02:17:45;;;;;;;;;;;;;;;;;;942065;27;19915;-78
2022/11/14 02:18:16;;;;;;;;;;;;;;;;;;942133;27;19918;-77
2022/11/14 02:18:46;;;;;;;;;;;;;;;;;;942191;27;19911;-78
2022/11/14 02:19:17;;;;;;;;;;;;;;;;;;941872;27;19928;-75
2022/11/14 02:19:52;;;;;;;;;;;;;;;;;;941502;27;19935;-77
2022/11/14 02:20:27;;;;;;;;;;;;;;;;;;941498;27;19907;-76
2022/11/14 02:20:58;;;;;;;;;;;;;;;;;;941652;27;19907;-77
2022/11/14 02:21:31;;;;;;;;;;;;;;;;;;941935;27;19966;-76
2022/11/14 02:22:02;;;;;;;;;;;;;;;;;;941885;27;19918;-77
2022/11/14 02:22:32;;;;;;;;;;;;;;;;;;941910;27;19918;-77
2022/11/14 02:23:03;;;;;;;;;;;;;;;;;;941838;27;19903;-77
2022/11/14 02:23:36;;;;;;;;;;;;;;;;;;941554;27;19922;-78
2022/11/14 02:24:08;;;;;;;;;;;;;;;;;;941950;27;19907;-76
2022/11/14 02:24:39;;;;;;;;;;;;;;;;;;941802;27;19907;-76
2022/11/14 02:25:14;;;;;;;;;;;;;;;;;;942073;27;19915;-77
2022/11/14 02:25:45;;;;;;;;;;;;;;;;;;942040;27;20258;-78
2022/11/14 02:26:16;;;;;;;;;;;;;;;;;;942402;27;19923;-78
2022/11/14 02:26:49;;;;;;;;;;;;;;;;;;944563;27;19907;-80
2022/11/14 02:27:53;;;;;;;;;;;;;;;;;;944358;27;19902;-79
2022/11/14 02:28:26;;;;;;;;;;;;;;;;;;943558;27;20791;-79
2022/11/14 02:28:57;;;;;;;;;;;;;;;;;;944505;27;19904;-80
2022/11/14 02:29:27;;;;;;;;;;;;;;;;;;944576;27;20280;-79
2022/11/14 02:30:04;;;;;;;;;;;;;;;;;;944520;27;20343;-78
2022/11/14 02:30:35;;;;;;;;;;;;;;;;;;944406;27;19903;-78
2022/11/14 02:31:06;;;;;;;;;;;;;;;;;;944533;27;19896;-79
2022/11/14 02:31:36;;;;;;;;;;;;;;;;;;943708;27;19903;-77
2022/11/14 02:32:10;;;;;;;;;;;;;;;;;;941178;27;19915;-75
2022/11/14 02:32:40;;;;;;;;;;;;;;;;;;941116;27;19907;-76
2022/11/14 02:33:11;;;;;;;;;;;;;;;;;;941122;27;19918;-75
2022/11/14 02:33:42;;;;;;;;;;;;;;;;;;941141;27;19922;-77
2022/11/14 02:34:18;;;;;;;;;;;;;;;;;;941070;27;19949;-77
2022/11/14 02:34:49;;;;;;;;;;;;;;;;;;941066;27;19911;-77
2022/11/14 02:35:20;;;;;;;;;;;;;;;;;;941079;27;19908;-77
2022/11/14 02:35:55;;;;;;;;;;;;;;;;;;941208;27;19911;-76
2022/11/14 02:36:26;;;;;;;;;;;;;;;;;;941226;27;20163;-76
2022/11/14 02:36:57;;;;;;;;;;;;;;;;;;941136;27;19915;-75
2022/11/14 02:37:28;;;;;;;;;;;;;;;;;;941153;27;19903;-75
2022/11/14 02:38:01;;;;;;;;;;;;;;;;;;941131;27;19959;-76
2022/11/14 02:38:32;;;;;;;;;;;;;;;;;;941077;27;19914;-75
2022/11/14 02:39:02;;;;;;;;;;;;;;;;;;941141;27;20156;-75
2022/11/14 02:39:35;;;;;;;;;;;;;;;;;;941633;27;19916;-82
2022/11/14 02:40:07;;;;;;;;;;;;;;;;;;943072;27;19904;-80
2022/11/14 02:40:38;;;;;;;;;;;;;;;;;;943240;27;19915;-79
2022/11/14 02:41:11;;;;;;;;;;;;;;;;;;943548;27;20379;-78
2022/11/14 02:41:42;;;;;;;;;;;;;;;;;;942717;27;19907;-76
2022/11/14 02:42:12;;;;;;;;;;;;;;;;;;942463;27;19904;-78
2022/11/14 02:42:43;;;;;;;;;;;;;;;;;;943235;27;19953;-77
2022/11/14 02:43:16;;;;;;;;;;;;;;;;;;942686;27;19969;-78
2022/11/14 02:43:47;;;;;;;;;;;;;;;;;;942138;27;19908;-77
2022/11/14 02:44:18;;;;;;;;;;;;;;;;;;942970;27;19903;-78
2022/11/14 02:44:51;;;;;;;;;;;;;;;;;;942139;27;19915;-77
2022/11/14 02:45:22;;;;;;;;;;;;;;;;;;942803;27;19908;-79
2022/11/14 02:45:53;;;;;;;;;;;;;;;;;;942333;27;19903;-77
2022/11/14 02:46:26;;;;;;;;;;;;;;;;;;942459;27;19904;-77
2022/11/14 02:46:56;;;;;;;;;;;;;;;;;;942369;27;19914;-76
2022/11/14 02:47:27;;;;;;;;;;;;;;;;;;942813;27;19919;-77
2022/11/14 02:48:00;;;;;;;;;;;;;;;;;;942488;27;19916;-77
2022/11/14 02:48:31;;;;;;;;;;;;;;;;;;942680;27;19918;-78
2022/11/14 02:49:02;;;;;;;;;;;;;;;;;;942631;27;20323;-78
2022/11/14 02:49:35;;;;;;;;;;;;;;;;;;942554;27;20314;-79
2022/11/14 02:50:06;;;;;;;;;;;;;;;;;;942293;27;19915;-77
2022/11/14 02:50:37;;;;;;;;;;;;;;;;;;942290;27;19904;-77
2022/11/14 02:51:12;;;;;;;;;;;;;;;;;;941402;27;19903;-77
2022/11/14 02:51:43;;;;;;;;;;;;;;;;;;941469;27;19919;-76
2022/11/14 02:52:14;;;;;;;;;;;;;;;;;;941239;27;19903;-76
2022/11/14 02:52:44;;;;;;;;;;;;;;;;;;941383;27;19959;-76
2022/11/14 02:53:18;;;;;;;;;;;;;;;;;;941561;27;19920;-77
2022/11/14 02:53:48;;;;;;;;;;;;;;;;;;941464;27;19904;-78
2022/11/14 02:54:19;;;;;;;;;;;;;;;;;;941626;27;19912;-78
2022/11/14 02:54:51;;;;;;;;;;;;;;;;;;941445;27;20006;-76
2022/11/14 02:55:24;;;;;;;;;;;;;;;;;;941381;27;19904;-77
2022/11/14 02:55:55;;;;;;;;;;;;;;;;;;941490;27;19903;-76
2022/11/14 02:56:25;;;;;;;;;;;;;;;;;;942345;27;19907;-77
2022/11/14 02:56:59;;;;;;;;;;;;;;;;;;944168;27;19904;-77
2022/11/14 02:57:29;;;;;;;;;;;;;;;;;;944312;27;20164;-77
2022/11/14 02:58:00;;;;;;;;;;;;;;;;;;944354;27;19895;-77
2022/11/14 02:58:33;;;;;;;;;;;;;;;;;;944342;27;20379;-78
2022/11/14 02:59:04;;;;;;;;;;;;;;;;;;944267;27;19900;-79
2022/11/14 02:59:35;;;;;;;;;;;;;;;;;;944336;27;19904;-76
2022/11/14 03:00:09;;;;;;;;;;;;;;;;;;944528;27;19916;-79
2022/11/14 03:00:39;;;;;;;;;;;;;;;;;;944365;27;20290;-79
2022/11/14 03:01:10;;;;;;;;;;;;;;;;;;944397;27;19903;-80
2022/11/14 03:01:43;;;;;;;;;;;;;;;;;;942077;27;19907;-77
2022/11/14 03:02:14;;;;;;;;;;;;;;;;;;941226;27;19907;-77
2022/11/14 03:02:45;;;;;;;;;;;;;;;;;;941231;27;19907;-77
2022/11/14 03:03:15;;;;;;;;;;;;;;;;;;941069;27;19904;-77
2022/11/14 03:03:48;;;;;;;;;;;;;;;;;;941267;27;19907;-76
2022/11/14 03:04:19;;;;;;;;;;;;;;;;;;941814;27;19921;-76
2022/11/14 03:04:50;;;;;;;;;;;;;;;;;;942139;27;19919;-78
2022/11/14 03:05:23;;;;;;;;;;;;;;;;;;942181;27;19904;-76
2022/11/14 03:05:57;;;;;;;;;;;;;;;;;;942056;27;19927;-77
2022/11/14 03:06:30;;;;;;;;;;;;;;;;;;942051;27;19907;-78
2022/11/14 03:07:04;;;;;;;;;;;;;;;;;;942095;27;20703;-77
2022/11/14 03:07:34;;;;;;;;;;;;;;;;;;942069;27;20144;-77
2022/11/14 03:08:08;;;;;;;;;;;;;;;;;;941990;27;19908;-78
2022/11/14 03:08:39;;;;;;;;;;;;;;;;;;942010;27;20252;-77
2022/11/14 03:09:09;;;;;;;;;;;;;;;;;;942172;27;19915;-78
2022/11/14 03:09:43;;;;;;;;;;;;;;;;;;941833;27;19968;-78
2022/11/14 03:10:13;;;;;;;;;;;;;;;;;;942027;27;20152;-76
2022/11/14 03:10:44;;;;;;;;;;;;;;;;;;942055;27;19908;-78
2022/11/14 03:11:17;;;;;;;;;;;;;;;;;;941977;27;19944;-77
2022/11/14 03:11:48;;;;;;;;;;;;;;;;;;941933;27;19908;-77
2022/11/14 03:12:19;;;;;;;;;;;;;;;;;;941822;27;19908;-76
2022/11/14 03:12:52;;;;;;;;;;;;;;;;;;942068;27;20213;-77
2022/11/14 03:13:30;;;;;;;;;;;;;;;;;;942116;27;19958;-78
2022/11/14 03:14:00;;;;;;;;;;;;;;;;;;941768;27;19903;-77
2022/11/14 03:14:31;;;;;;;;;;;;;;;;;;941655;27;19911;-77
2022/11/14 03:15:04;;;;;;;;;;;;;;;;;;941658;27;19907;-77
2022/11/14 03:15:36;;;;;;;;;;;;;;;;;;941792;27;19907;-77
2022/11/14 03:16:07;;;;;;;;;;;;;;;;;;941847;27;19958;-78
2022/11/14 03:16:40;;;;;;;;;;;;;;;;;;941839;27;19904;-76
2022/11/14 03:17:11;;;;;;;;;;;;;;;;;;941717;27;19903;-78
2022/11/14 03:17:42;;;;;;;;;;;;;;;;;;941856;27;20117;-77
2022/11/14 03:18:15;;;;;;;;;;;;;;;;;;941835;27;19918;-77
2022/11/14 03:18:46;;;;;;;;;;;;;;;;;;941371;27;19915;-77
2022/11/14 03:19:16;;;;;;;;;;;;;;;;;;941594;27;19915;-77
2022/11/14 03:19:47;;;;;;;;;;;;;;;;;;941657;27;20201;-78
2022/11/14 03:20:21;;;;;;;;;;;;;;;;;;941848;27;19957;-77
2022/11/14 03:20:51;;;;;;;;;;;;;;;;;;941579;27;19903;-75
2022/11/14 03:21:22;;;;;;;;;;;;;;;;;;941636;27;19907;-77
2022/11/14 03:21:58;;;;;;;;;;;;;;;;;;941579;27;19911;-77
2022/11/14 03:22:29;;;;;;;;;;;;;;;;;;941772;27;19915;-76
2022/11/14 03:23:00;;;;;;;;;;;;;;;;;;941524;27;19915;-78
2022/11/14 03:23:30;;;;;;;;;;;;;;;;;;941556;27;20216;-77
2022/11/14 03:24:04;;;;;;;;;;;;;;;;;;941631;27;20159;-79
2022/11/14 03:24:34;;;;;;;;;;;;;;;;;;941654;27;19914;-77
2022/11/14 03:25:05;;;;;;;;;;;;;;;;;;941506;27;19904;-78
2022/11/14 03:25:39;;;;;;;;;;;;;;;;;;941413;27;19907;-76
2022/11/14 03:26:10;;;;;;;;;;;;;;;;;;941361;27;20148;-76
2022/11/14 03:26:41;;;;;;;;;;;;;;;;;;941136;27;19979;-81
2022/11/14 03:27:14;;;;;;;;;;;;;;;;;;941157;27;20201;-77
2022/11/14 03:27:45;;;;;;;;;;;;;;;;;;941209;27;19908;-75
2022/11/14 03:28:15;;;;;;;;;;;;;;;;;;941296;27;20294;-76
2022/11/14 03:28:48;;;;;;;;;;;;;;;;;;941337;27;19907;-77
2022/11/14 03:29:19;;;;;;;;;;;;;;;;;;941386;27;20217;-77
2022/11/14 03:29:50;;;;;;;;;;;;;;;;;;941543;27;19918;-76
2022/11/14 03:30:23;;;;;;;;;;;;;;;;;;941780;27;19908;-78
2022/11/14 03:30:54;;;;;;;;;;;;;;;;;;941314;27;19907;-77
2022/11/14 03:31:24;;;;;;;;;;;;;;;;;;941656;27;20260;-77
2022/11/14 03:31:58;;;;;;;;;;;;;;;;;;941885;27;19915;-77
2022/11/14 03:32:28;;;;;;;;;;;;;;;;;;943591;27;19910;-79
2022/11/14 03:32:59;;;;;;;;;;;;;;;;;;944175;27;19910;-78
2022/11/14 03:33:32;;;;;;;;;;;;;;;;;;944509;27;19944;-79
2022/11/14 03:34:03;;;;;;;;;;;;;;;;;;944453;27;20245;-79
2022/11/14 03:34:34;;;;;;;;;;;;;;;;;;944559;27;19908;-79
2022/11/14 03:35:08;;;;;;;;;;;;;;;;;;944590;27;19904;-79
2022/11/14 03:35:41;;;;;;;;;;;;;;;;;;944485;27;19903;-78
2022/11/14 03:36:11;;;;;;;;;;;;;;;;;;944573;27;19904;-79
2022/11/14 03:36:42;;;;;;;;;;;;;;;;;;944169;27;19932;-78
2022/11/14 03:37:18;;;;;;;;;;;;;;;;;;942504;27;20627;-77
2022/11/14 03:37:49;;;;;;;;;;;;;;;;;;942395;27;20156;-78
2022/11/14 03:38:21;;;;;;;;;;;;;;;;;;942466;27;19903;-78
2022/11/14 03:38:55;;;;;;;;;;;;;;;;;;942241;27;19912;-78
2022/11/14 03:39:25;;;;;;;;;;;;;;;;;;942567;27;19904;-78
2022/11/14 03:39:56;;;;;;;;;;;;;;;;;;942591;27;19907;-78
2022/11/14 03:40:29;;;;;;;;;;;;;;;;;;943031;27;19903;-79
2022/11/14 03:41:00;;;;;;;;;;;;;;;;;;942645;27;19907;-77
2022/11/14 03:41:31;;;;;;;;;;;;;;;;;;942614;27;19903;-77
2022/11/14 03:42:04;;;;;;;;;;;;;;;;;;942581;27;19910;-78
2022/11/14 03:42:35;;;;;;;;;;;;;;;;;;942584;27;20156;-77
2022/11/14 03:43:06;;;;;;;;;;;;;;;;;;942698;27;19919;-79